createdAt,value
2023-04-27T00:02:00.285Z,3.70
2023-04-27T00:04:28.146Z,5.88
2023-04-27T00:06:55.412Z,5.13
2023-04-27T00:09:22.318Z,5.10
2023-04-27T00:11:49.187Z,4.78
2023-04-27T00:14:16.047Z,7.68
2023-04-27T00:16:43.188Z,4.55
2023-04-27T00:19:10.166Z,3.13
2023-04-27T00:21:36.998Z,4.43
2023-04-27T00:24:04.029Z,6.07
2023-04-27T00:26:30.954Z,12.00
2023-04-27T00:28:57.927Z,8.48
2023-04-27T00:31:24.977Z,5.32
2023-04-27T00:33:51.799Z,4.70
2023-04-27T00:36:18.668Z,4.45
2023-04-27T00:38:45.471Z,6.30
2023-04-27T00:41:12.254Z,8.80
2023-04-27T00:43:44.387Z,6.03
2023-04-27T00:46:13.827Z,4.20
2023-04-27T00:48:41.803Z,3.55
2023-04-27T00:51:08.730Z,4.28
2023-04-27T00:53:36.740Z,8.23
2023-04-27T00:56:05.086Z,9.18
2023-04-27T00:58:32.052Z,3.88
2023-04-27T01:01:00.376Z,5.68
2023-04-27T01:03:27.844Z,3.88
2023-04-27T01:05:56.694Z,3.95
2023-04-27T01:08:23.528Z,6.25
2023-04-27T01:10:50.717Z,6.18
2023-04-27T01:13:17.806Z,4.65
2023-04-27T01:15:44.676Z,2.40
2023-04-27T01:18:11.970Z,11.05
2023-04-27T01:20:39.121Z,5.75
2023-04-27T01:23:08.005Z,3.90
2023-04-27T01:25:34.937Z,6.63
2023-04-27T01:28:01.744Z,5.10
2023-04-27T01:30:30.177Z,3.75
2023-04-27T01:32:57.348Z,4.32
2023-04-27T01:35:25.695Z,7.28
2023-04-27T01:37:54.543Z,5.82
2023-04-27T01:40:21.466Z,7.22
2023-04-27T01:42:48.405Z,14.18
2023-04-27T01:45:15.467Z,5.82
2023-04-27T01:47:42.310Z,5.22
2023-04-27T01:50:09.504Z,5.78
2023-04-27T01:52:36.329Z,7.55
2023-04-27T01:55:03.270Z,4.45
2023-04-27T01:57:30.098Z,10.05
2023-04-27T01:59:56.973Z,4.75
2023-04-27T02:02:24.036Z,4.43
2023-04-27T02:04:51.403Z,5.47
2023-04-27T02:07:18.453Z,5.82
2023-04-27T02:09:45.426Z,6.07
2023-04-27T02:12:12.245Z,13.05
2023-04-27T02:14:39.174Z,5.25
2023-04-27T02:17:06.294Z,5.22
2023-04-27T02:19:33.112Z,6.15
2023-04-27T02:21:59.937Z,10.43
2023-04-27T02:24:26.773Z,5.00
2023-04-27T02:26:53.751Z,3.45
2023-04-27T02:29:20.571Z,5.53
2023-04-27T02:31:48.238Z,6.47
2023-04-27T02:34:15.224Z,5.32
2023-04-27T02:36:42.130Z,4.53
2023-04-27T02:39:09.142Z,5.45
2023-04-27T02:41:35.957Z,5.50
2023-04-27T02:44:02.836Z,6.93
2023-04-27T02:46:29.694Z,10.60
2023-04-27T02:48:56.640Z,7.38
2023-04-27T02:51:23.902Z,6.90
2023-04-27T02:53:52.576Z,11.50
2023-04-27T02:56:19.366Z,5.78
2023-04-27T02:58:47.921Z,4.13
2023-04-27T03:01:18.118Z,5.60
2023-04-27T03:03:48.222Z,4.93
2023-04-27T03:06:15.326Z,7.55
2023-04-27T03:08:42.225Z,10.90
2023-04-27T03:11:12.862Z,7.90
2023-04-27T03:13:42.723Z,5.15
2023-04-27T03:16:13.780Z,5.90
2023-04-27T03:18:41.135Z,5.20
2023-04-27T03:21:09.533Z,6.18
2023-04-27T03:23:36.883Z,7.30
2023-04-27T03:26:07.904Z,15.27
2023-04-27T03:28:35.448Z,5.45
2023-04-27T03:31:10.796Z,6.80
2023-04-27T03:33:38.173Z,6.43
2023-04-27T03:36:06.590Z,11.38
2023-04-27T03:38:34.158Z,4.43
2023-04-27T03:41:01.079Z,6.30
2023-04-27T03:43:29.239Z,11.88
2023-04-27T03:45:56.186Z,7.20
2023-04-27T03:48:23.140Z,3.92
2023-04-27T03:50:50.156Z,5.45
2023-04-27T03:53:17.100Z,5.88
2023-04-27T03:55:45.044Z,4.25
2023-04-27T03:58:12.842Z,5.57
2023-04-27T04:00:40.103Z,6.65
2023-04-27T04:03:08.160Z,5.68
2023-04-27T04:05:36.058Z,11.32
2023-04-27T04:08:03.464Z,6.35
2023-04-27T04:10:30.341Z,6.38
2023-04-27T04:12:57.145Z,8.00
2023-04-27T04:15:24.030Z,4.47
2023-04-27T04:17:51.360Z,7.43
2023-04-27T04:20:18.369Z,7.78
2023-04-27T04:22:45.343Z,6.53
2023-04-27T04:25:13.127Z,8.65
2023-04-27T04:27:40.956Z,5.20
2023-04-27T04:30:08.280Z,6.80
2023-04-27T04:32:38.037Z,8.15
2023-04-27T04:35:08.090Z,9.52
2023-04-27T04:37:35.513Z,6.75
2023-04-27T04:40:10.628Z,6.72
2023-04-27T04:42:38.010Z,8.35
2023-04-27T04:45:05.751Z,7.60
2023-04-27T04:47:32.598Z,5.63
2023-04-27T04:49:59.584Z,8.43
2023-04-27T04:52:26.529Z,4.85
2023-04-27T04:54:53.628Z,8.23
2023-04-27T04:57:20.636Z,5.65
2023-04-27T04:59:47.651Z,6.57
2023-04-27T05:02:14.625Z,6.30
2023-04-27T05:04:41.642Z,9.50
2023-04-27T05:07:08.615Z,7.50
2023-04-27T05:09:35.536Z,5.95
2023-04-27T05:12:02.586Z,7.97
2023-04-27T05:14:29.339Z,8.60
2023-04-27T05:16:56.307Z,6.68
2023-04-27T05:19:23.259Z,7.55
2023-04-27T05:21:50.085Z,9.75
2023-04-27T05:24:17.246Z,14.60
2023-04-27T05:26:44.257Z,6.53
2023-04-27T05:29:11.467Z,8.13
2023-04-27T05:31:38.566Z,11.98
2023-04-27T05:34:05.597Z,11.35
2023-04-27T05:36:32.726Z,6.25
2023-04-27T05:38:59.585Z,7.80
2023-04-27T05:41:26.438Z,7.50
2023-04-27T05:43:53.548Z,6.68
2023-04-27T05:46:21.149Z,9.00
2023-04-27T05:48:48.157Z,9.80
2023-04-27T05:51:15.176Z,11.02
2023-04-27T05:53:42.193Z,8.32
2023-04-27T05:56:09.345Z,9.25
2023-04-27T05:58:36.602Z,8.63
2023-04-27T06:01:04.042Z,12.05
2023-04-27T06:03:31.544Z,6.55
2023-04-27T06:06:00.349Z,9.05
2023-04-27T06:08:28.111Z,7.88
2023-04-27T06:10:55.090Z,6.57
2023-04-27T06:13:22.167Z,7.70
2023-04-27T06:15:49.196Z,15.88
2023-04-27T06:18:16.622Z,6.25
2023-04-27T06:20:43.541Z,11.55
2023-04-27T06:23:10.507Z,14.80
2023-04-27T06:25:39.034Z,11.15
2023-04-27T06:28:06.302Z,9.68
2023-04-27T06:30:33.245Z,7.35
2023-04-27T06:33:00.206Z,6.82
2023-04-27T06:35:27.221Z,4.88
2023-04-27T06:37:58.665Z,4.13
2023-04-27T06:40:26.498Z,5.60
2023-04-27T06:42:53.577Z,6.70
2023-04-27T06:45:20.956Z,4.18
2023-04-27T06:47:47.848Z,4.05
2023-04-27T06:50:16.284Z,7.22
2023-04-27T06:52:43.290Z,2.53
2023-04-27T06:55:10.592Z,3.53
2023-04-27T06:57:37.473Z,5.22
2023-04-27T07:00:05.178Z,5.75
2023-04-27T07:02:32.628Z,5.75
2023-04-27T07:05:01.974Z,2.58
2023-04-27T07:07:28.958Z,4.13
2023-04-27T07:09:55.840Z,2.65
2023-04-27T07:12:22.723Z,4.10
2023-04-27T07:14:51.016Z,3.25
2023-04-27T07:17:18.088Z,2.90
2023-04-27T07:19:44.934Z,2.90
2023-04-27T07:22:11.897Z,2.63
2023-04-27T07:24:38.852Z,3.17
2023-04-27T07:27:05.687Z,1.42
2023-04-27T07:29:32.989Z,3.83
2023-04-27T07:32:00.254Z,2.83
2023-04-27T07:34:30.784Z,3.25
2023-04-27T07:37:02.497Z,3.33
2023-04-27T07:39:29.978Z,3.45
2023-04-27T07:41:58.309Z,2.10
2023-04-27T07:44:25.248Z,8.55
2023-04-27T07:46:54.778Z,1.75
2023-04-27T07:49:21.594Z,3.28
2023-04-27T07:51:48.524Z,3.97
2023-04-27T07:54:15.502Z,1.02
2023-04-27T07:56:43.368Z,3.45
2023-04-27T07:59:10.891Z,2.40
2023-04-27T08:01:38.200Z,1.20
2023-04-27T08:04:05.962Z,3.47
2023-04-27T08:06:33.331Z,2.40
2023-04-27T08:09:03.830Z,3.15
2023-04-27T08:11:30.824Z,3.95
2023-04-27T08:13:57.827Z,2.83
2023-04-27T08:16:24.755Z,1.98
2023-04-27T08:18:51.714Z,3.63
2023-04-27T08:21:21.642Z,2.03
2023-04-27T08:23:48.630Z,5.55
2023-04-27T08:26:16.582Z,3.15
2023-04-27T08:28:43.392Z,1.38
2023-04-27T08:31:10.344Z,4.10
2023-04-27T08:33:37.249Z,3.38
2023-04-27T08:36:04.536Z,0.75
2023-04-27T08:38:31.398Z,4.03
2023-04-27T08:41:02.676Z,1.45
2023-04-27T08:43:37.649Z,1.52
2023-04-27T08:46:04.603Z,2.25
2023-04-27T08:48:31.656Z,4.68
2023-04-27T08:51:00.763Z,2.17
2023-04-27T08:53:27.637Z,2.47
2023-04-27T08:55:56.795Z,3.65
2023-04-27T08:58:36.013Z,1.83
2023-04-27T09:01:07.027Z,3.60
2023-04-27T09:03:37.281Z,2.00
2023-04-27T09:06:06.228Z,4.50
2023-04-27T09:08:43.133Z,2.38
2023-04-27T09:11:10.233Z,3.53
2023-04-27T09:13:38.463Z,3.33
2023-04-27T09:16:05.762Z,4.70
2023-04-27T09:18:36.769Z,3.70
2023-04-27T09:21:04.311Z,2.90
2023-04-27T09:23:33.420Z,5.78
2023-04-27T09:26:03.389Z,1.48
2023-04-27T09:28:32.443Z,4.95
2023-04-27T09:31:00.721Z,5.07
2023-04-27T09:33:36.059Z,4.65
2023-04-27T09:36:06.256Z,3.72
2023-04-27T09:38:33.522Z,2.53
2023-04-27T09:41:01.638Z,1.38
2023-04-27T09:43:30.699Z,1.20
2023-04-27T09:45:59.092Z,6.03
2023-04-27T09:48:26.823Z,2.80
2023-04-27T09:50:54.043Z,4.75
2023-04-27T09:53:30.601Z,3.20
2023-04-27T09:56:23.015Z,4.60
2023-04-27T09:59:31.630Z,2.55
2023-04-27T10:02:09.954Z,4.60
2023-04-27T10:04:49.619Z,2.72
2023-04-27T10:07:17.675Z,2.50
2023-04-27T10:09:49.406Z,3.17
2023-04-27T10:12:28.220Z,2.92
2023-04-27T10:15:00.928Z,2.63
2023-04-27T10:17:32.762Z,8.70
2023-04-27T10:20:01.749Z,2.55
2023-04-27T10:22:42.155Z,4.47
2023-04-27T10:25:23.306Z,4.07
2023-04-27T10:28:03.914Z,3.28
2023-04-27T10:30:36.590Z,3.03
2023-04-27T10:33:11.061Z,1.60
2023-04-27T10:35:44.428Z,1.27
2023-04-27T10:38:22.727Z,1.37
2023-04-27T10:40:58.622Z,3.55
2023-04-27T10:43:29.574Z,3.25
2023-04-27T10:46:08.458Z,3.40
2023-04-27T10:48:35.456Z,4.32
2023-04-27T10:51:03.714Z,4.60
2023-04-27T10:53:36.006Z,1.63
2023-04-27T10:56:06.619Z,3.10
2023-04-27T10:58:45.405Z,6.85
2023-04-27T11:01:24.728Z,2.00
2023-04-27T11:04:01.999Z,4.22
2023-04-27T11:06:30.468Z,3.13
2023-04-27T11:08:57.654Z,5.32
2023-04-27T11:11:25.214Z,4.57
2023-04-27T11:13:53.179Z,2.63
2023-04-27T11:16:20.256Z,6.47
2023-04-27T11:18:47.252Z,2.38
2023-04-27T11:21:20.512Z,5.68
2023-04-27T11:23:47.891Z,5.38
2023-04-27T11:26:26.843Z,3.45
2023-04-27T11:29:05.426Z,5.75
2023-04-27T11:31:43.685Z,3.33
2023-04-27T11:34:16.528Z,1.83
2023-04-27T11:36:43.601Z,2.30
2023-04-27T11:39:19.034Z,3.88
2023-04-27T11:41:46.668Z,2.95
2023-04-27T11:44:13.727Z,4.43
2023-04-27T11:46:45.245Z,2.88
2023-04-27T11:49:13.107Z,3.42
2023-04-27T11:51:40.467Z,3.30
2023-04-27T11:54:07.794Z,2.85
2023-04-27T11:56:40.509Z,4.25
2023-04-27T11:59:19.240Z,2.40
2023-04-27T12:01:46.683Z,2.65
2023-04-27T12:04:13.959Z,2.83
2023-04-27T12:06:41.358Z,1.98
2023-04-27T12:09:08.214Z,17.45
2023-04-27T12:11:35.109Z,4.18
2023-04-27T12:14:02.840Z,2.85
2023-04-27T12:16:29.784Z,2.90
2023-04-27T12:18:56.823Z,2.65
2023-04-27T12:21:23.801Z,4.47
2023-04-27T12:23:50.819Z,2.58
2023-04-27T12:26:18.333Z,2.03
2023-04-27T12:28:45.227Z,9.52
2023-04-27T12:31:16.277Z,3.28
2023-04-27T12:33:43.178Z,6.57
2023-04-27T12:36:10.114Z,2.95
2023-04-27T12:38:37.206Z,3.97
2023-04-27T12:41:04.117Z,3.90
2023-04-27T12:43:31.106Z,5.30
2023-04-27T12:45:58.004Z,6.50
2023-04-27T12:48:24.939Z,4.32
2023-04-27T12:50:51.818Z,1.13
2023-04-27T12:53:18.659Z,2.17
2023-04-27T12:55:46.942Z,2.58
2023-04-27T12:58:13.803Z,3.35
2023-04-27T13:00:41.776Z,3.83
2023-04-27T13:03:08.821Z,1.95
2023-04-27T13:05:35.850Z,2.25
2023-04-27T13:08:02.708Z,2.03
2023-04-27T13:10:29.710Z,1.30
2023-04-27T13:12:56.613Z,2.95
2023-04-27T13:15:23.393Z,1.67
2023-04-27T13:17:53.319Z,3.70
2023-04-27T13:20:21.042Z,7.22
2023-04-27T13:22:48.242Z,4.13
2023-04-27T13:25:16.761Z,3.25
2023-04-27T13:27:43.857Z,2.85
2023-04-27T13:30:11.007Z,3.33
2023-04-27T13:32:38.016Z,3.80
2023-04-27T13:35:05.518Z,4.30
2023-04-27T13:37:32.487Z,3.65
2023-04-27T13:39:59.350Z,2.45
2023-04-27T13:42:29.814Z,5.65
2023-04-27T13:44:57.168Z,4.00
2023-04-27T13:47:24.066Z,2.78
2023-04-27T13:49:51.127Z,1.95
2023-04-27T13:52:18.204Z,3.53
2023-04-27T13:54:45.142Z,4.25
2023-04-27T13:57:12.040Z,2.13
2023-04-27T13:59:38.865Z,3.63
2023-04-27T14:02:05.936Z,3.55
2023-04-27T14:04:33.348Z,4.00
2023-04-27T14:07:00.454Z,7.03
2023-04-27T14:09:27.336Z,4.65
2023-04-27T14:11:57.275Z,6.25
2023-04-27T14:14:24.725Z,4.25
2023-04-27T14:16:53.509Z,4.03
2023-04-27T14:19:20.886Z,5.57
2023-04-27T14:21:49.970Z,2.33
2023-04-27T14:24:16.840Z,1.77
2023-04-27T14:26:43.950Z,4.47
2023-04-27T14:29:11.814Z,4.63
2023-04-27T14:31:39.827Z,2.95
2023-04-27T14:34:08.202Z,4.47
2023-04-27T14:36:35.874Z,4.00
2023-04-27T14:39:04.510Z,4.25
2023-04-27T14:41:31.524Z,7.07
2023-04-27T14:43:58.512Z,3.92
2023-04-27T14:46:25.459Z,4.43
2023-04-27T14:48:52.517Z,2.90
2023-04-27T14:51:19.506Z,4.78
2023-04-27T14:53:46.427Z,2.72
2023-04-27T14:56:13.306Z,3.30
2023-04-27T14:58:41.122Z,3.92
2023-04-27T15:01:08.127Z,4.03
2023-04-27T15:03:35.598Z,8.95
2023-04-27T15:06:03.088Z,6.82
2023-04-27T15:08:32.073Z,1.42
2023-04-27T15:11:01.171Z,4.47
2023-04-27T15:13:28.428Z,5.07
2023-04-27T15:15:56.536Z,2.80
2023-04-27T15:18:24.446Z,4.65
2023-04-27T15:20:59.091Z,2.90
2023-04-27T15:23:27.553Z,8.52
2023-04-27T15:25:56.639Z,3.72
2023-04-27T15:28:23.619Z,5.53
2023-04-27T15:30:50.753Z,4.10
2023-04-27T15:33:18.186Z,6.22
2023-04-27T15:35:47.704Z,2.58
2023-04-27T15:38:15.595Z,5.00
2023-04-27T15:40:42.570Z,2.88
2023-04-27T15:43:09.599Z,2.20
2023-04-27T15:45:36.567Z,6.35
2023-04-27T15:48:03.823Z,9.43
2023-04-27T15:50:30.949Z,4.85
2023-04-27T15:52:57.862Z,4.47
2023-04-27T15:55:24.919Z,4.80
2023-04-27T15:57:54.480Z,5.05
2023-04-27T16:00:22.364Z,7.22
2023-04-27T16:02:49.809Z,5.38
2023-04-27T16:05:19.046Z,4.50
2023-04-27T16:07:46.000Z,4.15
2023-04-27T16:10:13.567Z,2.67
2023-04-27T16:12:40.610Z,2.75
2023-04-27T16:15:10.743Z,2.92
2023-04-27T16:17:41.025Z,1.98
2023-04-27T16:20:08.393Z,2.97
2023-04-27T16:22:36.552Z,4.32
2023-04-27T16:25:04.402Z,9.20
2023-04-27T16:27:31.654Z,5.85
2023-04-27T16:29:58.693Z,4.78
2023-04-27T16:32:26.660Z,5.78
2023-04-27T16:34:53.798Z,5.50
2023-04-27T16:37:20.740Z,5.30
2023-04-27T16:39:47.538Z,2.38
2023-04-27T16:42:19.869Z,2.58
2023-04-27T16:44:47.101Z,6.45
2023-04-27T16:47:14.107Z,3.83
2023-04-27T16:49:44.289Z,3.65
2023-04-27T16:52:12.619Z,9.38
2023-04-27T16:54:39.463Z,6.55
2023-04-27T16:57:07.952Z,3.70
2023-04-27T16:59:35.057Z,3.35
2023-04-27T17:02:16.417Z,4.78
2023-04-27T17:04:48.523Z,3.78
2023-04-27T17:07:15.440Z,6.25
2023-04-27T17:09:44.472Z,4.93
2023-04-27T17:12:13.473Z,5.93
2023-04-27T17:14:40.473Z,4.47
2023-04-27T17:17:07.351Z,3.50
2023-04-27T17:19:34.207Z,2.65
2023-04-27T17:22:01.213Z,2.90
2023-04-27T17:24:28.244Z,3.72
2023-04-27T17:26:55.121Z,4.85
2023-04-27T17:29:22.136Z,6.40
2023-04-27T17:31:50.430Z,4.35
2023-04-27T17:34:17.343Z,4.03
2023-04-27T17:36:44.184Z,5.47
2023-04-27T17:39:13.009Z,3.33
2023-04-27T17:41:40.653Z,5.60
2023-04-27T17:44:07.820Z,7.20
2023-04-27T17:46:34.839Z,4.47
2023-04-27T17:49:01.734Z,5.38
2023-04-27T17:51:28.626Z,5.85
2023-04-27T17:53:55.688Z,5.43
2023-04-27T17:56:22.612Z,3.63
2023-04-27T17:58:49.457Z,5.57
2023-04-27T18:01:16.366Z,5.60
2023-04-27T18:03:43.436Z,4.53
2023-04-27T18:06:10.850Z,7.68
2023-04-27T18:08:37.673Z,8.85
2023-04-27T18:11:04.565Z,5.88
2023-04-27T18:13:32.591Z,4.95
2023-04-27T18:15:59.630Z,8.60
2023-04-27T18:18:26.989Z,7.15
2023-04-27T18:20:56.259Z,11.15
2023-04-27T18:23:26.236Z,6.70
2023-04-27T18:25:53.158Z,6.07
2023-04-27T18:28:19.966Z,4.63
2023-04-27T18:30:47.054Z,5.05
2023-04-27T18:33:13.963Z,6.97
2023-04-27T18:35:40.860Z,6.75
2023-04-27T18:38:10.384Z,6.55
2023-04-27T18:40:37.254Z,7.32
2023-04-27T18:43:04.453Z,7.40
2023-04-27T18:45:31.475Z,6.70
2023-04-27T18:47:58.344Z,8.05
2023-04-27T18:50:25.402Z,7.03
2023-04-27T18:52:52.446Z,5.43
2023-04-27T18:55:19.471Z,10.57
2023-04-27T18:57:46.474Z,7.03
2023-04-27T19:00:13.807Z,11.52
2023-04-27T19:02:41.046Z,8.70
2023-04-27T19:05:13.162Z,11.48
2023-04-27T19:07:41.013Z,11.88
2023-04-27T19:10:08.692Z,18.33
2023-04-27T19:12:35.988Z,20.88
2023-04-27T19:15:03.384Z,19.38
2023-04-27T19:17:36.338Z,17.20
2023-04-27T19:20:03.890Z,10.65
2023-04-27T19:22:34.287Z,7.15
2023-04-27T19:25:01.537Z,8.38
2023-04-27T19:27:28.578Z,5.80
2023-04-27T19:29:57.574Z,5.90
2023-04-27T19:32:28.523Z,5.40
2023-04-27T19:34:56.813Z,8.57
2023-04-27T19:37:25.144Z,11.38
2023-04-27T19:39:52.032Z,11.38
2023-04-27T19:42:18.895Z,10.48
2023-04-27T19:44:46.082Z,9.85
2023-04-27T19:47:12.972Z,7.28
2023-04-27T19:49:40.082Z,5.95
2023-04-27T19:52:07.544Z,5.18
2023-04-27T19:54:38.013Z,12.90
2023-04-27T19:57:04.995Z,8.00
2023-04-27T19:59:31.865Z,6.88
2023-04-27T20:01:58.995Z,10.07
2023-04-27T20:04:26.208Z,10.82
2023-04-27T20:06:53.311Z,8.63
2023-04-27T20:09:20.090Z,13.77
2023-04-27T20:11:46.975Z,6.05
2023-04-27T20:14:14.470Z,8.60
2023-04-27T20:16:41.817Z,9.43
2023-04-27T20:19:10.800Z,9.27
2023-04-27T20:21:38.179Z,8.32
2023-04-27T20:24:05.160Z,10.77
2023-04-27T20:26:32.140Z,8.45
2023-04-27T20:28:59.703Z,12.02
2023-04-27T20:31:26.851Z,8.48
2023-04-27T20:33:54.283Z,8.02
2023-04-27T20:36:24.942Z,7.15
2023-04-27T20:38:52.310Z,6.35
2023-04-27T20:41:19.236Z,6.30
2023-04-27T20:43:46.079Z,10.68
2023-04-27T20:46:15.487Z,9.85
2023-04-27T20:48:42.375Z,9.88
2023-04-27T20:51:09.427Z,10.05
2023-04-27T20:53:36.896Z,7.47
2023-04-27T20:56:07.216Z,8.23
2023-04-27T20:58:34.035Z,8.13
2023-04-27T21:01:02.103Z,5.80
2023-04-27T21:03:29.118Z,10.15
2023-04-27T21:05:58.528Z,8.35
2023-04-27T21:08:26.197Z,9.27
2023-04-27T21:10:53.043Z,7.00
2023-04-27T21:13:19.880Z,8.68
2023-04-27T21:15:46.689Z,12.52
2023-04-27T21:18:22.470Z,11.02
2023-04-27T21:20:56.065Z,8.00
2023-04-27T21:23:23.187Z,7.95
2023-04-27T21:25:50.168Z,10.45
2023-04-27T21:28:17.035Z,9.57
2023-04-27T21:30:43.961Z,9.73
2023-04-27T21:33:11.415Z,13.80
2023-04-27T21:35:38.309Z,7.72
2023-04-27T21:38:05.228Z,5.82
2023-04-27T21:40:32.083Z,5.38
2023-04-27T21:42:58.919Z,9.05
2023-04-27T21:45:29.198Z,8.60
2023-04-27T21:47:56.046Z,6.13
2023-04-27T21:50:22.934Z,10.60
2023-04-27T21:52:49.732Z,8.18
2023-04-27T21:55:16.674Z,8.90
2023-04-27T21:57:43.666Z,9.90
2023-04-27T22:00:14.082Z,12.98
2023-04-27T22:02:42.420Z,12.45
2023-04-27T22:05:09.925Z,9.35
2023-04-27T22:07:38.141Z,9.23
2023-04-27T22:10:05.805Z,11.15
2023-04-27T22:12:33.470Z,13.65
2023-04-27T22:15:00.861Z,8.15
2023-04-27T22:17:27.907Z,7.15
2023-04-27T22:19:54.901Z,7.30
2023-04-27T22:22:21.961Z,9.50
2023-04-27T22:24:48.798Z,11.65
2023-04-27T22:27:17.338Z,8.63
2023-04-27T22:29:44.229Z,7.68
2023-04-27T22:32:11.041Z,9.75
2023-04-27T22:34:38.131Z,8.10
2023-04-27T22:37:05.137Z,7.38
2023-04-27T22:39:32.560Z,9.23
2023-04-27T22:41:59.425Z,12.55
2023-04-27T22:44:26.404Z,7.68
2023-04-27T22:46:53.310Z,11.02
2023-04-27T22:49:20.194Z,7.25
2023-04-27T22:51:47.249Z,10.88
2023-04-27T22:54:14.894Z,21.20
2023-04-27T22:56:42.122Z,10.73
2023-04-27T22:59:08.969Z,7.20
2023-04-27T23:01:36.142Z,12.68
2023-04-27T23:04:03.082Z,10.10
2023-04-27T23:06:30.419Z,8.05
2023-04-27T23:08:57.316Z,12.20
2023-04-27T23:11:24.169Z,9.10
2023-04-27T23:13:50.983Z,12.00
2023-04-27T23:16:17.926Z,10.93
2023-04-27T23:18:44.799Z,9.70
2023-04-27T23:21:11.828Z,8.60
2023-04-27T23:23:38.780Z,9.63
2023-04-27T23:26:16.370Z,9.88
2023-04-27T23:28:43.760Z,9.68
2023-04-27T23:31:11.010Z,14.15
2023-04-27T23:33:37.899Z,9.80
2023-04-27T23:36:05.084Z,9.10
2023-04-27T23:38:31.917Z,9.55
2023-04-27T23:40:58.813Z,9.55
2023-04-27T23:43:27.580Z,12.50
2023-04-27T23:45:54.675Z,12.05
2023-04-27T23:48:21.776Z,10.25
2023-04-27T23:50:48.732Z,9.95
2023-04-27T23:53:15.656Z,13.88
2023-04-27T23:55:42.586Z,15.52
2023-04-27T23:58:09.403Z,11.13
